Time;durP1;ratioP1;P1;durP2;ratioP2;P2;SDS_P1;SDS_P2;PMS_P1;PMS_P2;Temp;Humidity;BMP_temperature;BMP_pressure;BME280_temperature;BME280_humidity;BME280_pressure;Samples;Min_cycle;Max_cycle;Signal;HPM_P1;HPM_P2
2022/06/08 00:01:38;;;;;;;1.60;1.15;;;17.40;99.90;;;;;;5086800;28;20020;-86
2022/06/08 00:04:06;;;;;;;1.77;1.42;;;17.40;99.90;;;;;;5080425;28;20108;-86
2022/06/08 00:06:32;;;;;;;0.82;0.82;;;17.40;99.90;;;;;;5085821;28;20047;-86
2022/06/08 00:08:57;;;;;;;1.20;1.10;;;17.40;99.90;;;;;;5079591;28;20051;-86
2022/06/08 00:11:23;;;;;;;2.03;1.13;;;17.40;99.90;;;;;;5078450;28;20024;-86
2022/06/08 00:13:50;;;;;;;1.10;1.00;;;17.40;99.90;;;;;;5078336;28;20031;-86
2022/06/08 00:16:16;;;;;;;1.33;1.05;;;17.40;99.90;;;;;;5082652;28;20474;-86
2022/06/08 00:18:42;;;;;;;1.63;1.33;;;17.40;99.90;;;;;;5074940;28;20035;-86
2022/06/08 00:21:08;;;;;;;0.77;0.73;;;17.40;99.90;;;;;;5079542;28;20032;-86
2022/06/08 00:23:35;;;;;;;0.85;0.80;;;17.40;99.90;;;;;;5087502;28;20659;-86
2022/06/08 00:26:00;;;;;;;1.15;1.05;;;17.30;99.90;;;;;;5087389;28;20016;-87
2022/06/08 00:28:26;;;;;;;2.10;1.15;;;17.40;99.90;;;;;;5080182;28;20382;-87
2022/06/08 00:30:51;;;;;;;0.93;0.82;;;17.40;99.90;;;;;;5088764;28;20027;-87
2022/06/08 00:33:17;;;;;;;2.25;1.05;;;17.40;99.90;;;;;;5085451;28;20582;-86
2022/06/08 00:35:42;;;;;;;1.25;0.98;;;17.30;99.90;;;;;;5076225;28;20020;-86
2022/06/08 00:38:08;;;;;;;1.27;0.98;;;17.30;99.90;;;;;;5081613;28;20063;-85
2022/06/08 00:40:55;;;;;;;0.98;0.93;;;17.10;99.90;;;;;;5086617;28;20028;-80
2022/06/08 00:43:20;;;;;;;1.17;0.98;;;17.00;99.90;;;;;;5079761;28;20478;-82
2022/06/08 00:45:47;;;;;;;1.52;1.08;;;16.90;99.90;;;;;;5078025;28;20035;-82
2022/06/08 00:48:13;;;;;;;1.55;1.02;;;16.90;99.90;;;;;;5076055;28;20028;-82
2022/06/08 00:50:42;;;;;;;1.42;1.10;;;16.80;99.90;;;;;;5069533;28;20029;-83
2022/06/08 00:53:09;;;;;;;1.30;1.08;;;16.70;99.90;;;;;;5082310;28;20036;-83
2022/06/08 00:55:38;;;;;;;1.30;1.20;;;16.70;99.90;;;;;;5084048;28;20059;-82
2022/06/08 00:58:23;;;;;;;1.20;1.10;;;16.60;99.90;;;;;;5086544;28;20032;-82
2022/06/08 01:00:49;;;;;;;1.70;1.48;;;16.60;99.90;;;;;;5083072;28;20041;-83
2022/06/08 01:03:15;;;;;;;7.88;1.73;;;16.60;99.90;;;;;;5074230;28;21409;-82
2022/06/08 01:05:46;;;;;;;0.77;0.77;;;16.60;99.90;;;;;;5080718;28;20489;-82
2022/06/08 01:08:40;;;;;;;1.65;1.35;;;16.60;99.90;;;;;;5082050;28;20114;-83
2022/06/08 01:11:13;;;;;;;1.05;0.95;;;16.60;99.90;;;;;;5069565;28;20125;-82
2022/06/08 01:13:39;;;;;;;1.50;1.30;;;16.60;99.90;;;;;;5079465;28;20024;-82
2022/06/08 01:16:09;;;;;;;1.50;1.25;;;16.50;99.90;;;;;;5080278;28;20596;-82
2022/06/08 01:18:35;;;;;;;1.02;0.80;;;16.50;99.90;;;;;;5078028;28;20113;-82
2022/06/08 01:21:19;;;;;;;0.77;0.77;;;16.50;99.90;;;;;;5082207;28;20502;-82
2022/06/08 01:23:50;;;;;;;1.17;1.08;;;16.50;99.90;;;;;;5083996;28;20031;-82
2022/06/08 01:26:24;;;;;;;0.95;0.85;;;16.60;99.90;;;;;;5084549;28;20020;-83
2022/06/08 01:29:03;;;;;;;4.05;1.70;;;16.50;99.90;;;;;;5083225;28;20080;-82
2022/06/08 01:31:41;;;;;;;1.30;1.10;;;16.60;99.90;;;;;;5081491;28;20032;-82
2022/06/08 01:34:49;;;;;;;0.88;0.80;;;16.60;99.90;;;;;;5075343;28;20085;-82
2022/06/08 01:37:26;;;;;;;1.00;0.90;;;16.50;99.90;;;;;;5076735;28;20024;-83
2022/06/08 01:40:15;;;;;;;1.95;1.10;;;16.50;99.90;;;;;;5058923;28;20541;-82
2022/06/08 01:43:05;;;;;;;2.88;1.30;;;16.30;99.90;;;;;;5087141;28;20038;-83
2022/06/08 01:45:52;;;;;;;1.42;1.33;;;16.20;99.90;;;;;;5082368;28;20024;-83
2022/06/08 01:49:11;;;;;;;2.28;1.38;;;16.10;99.90;;;;;;5084572;28;20034;-82
2022/06/08 01:51:40;;;;;;;2.10;1.23;;;16.00;99.90;;;;;;5021470;28;20021;-83
2022/06/08 01:54:45;;;;;;;2.17;1.30;;;15.90;99.90;;;;;;5081500;28;20052;-83
2022/06/08 01:57:25;;;;;;;0.95;0.70;;;15.80;99.90;;;;;;5084575;28;20094;-82
2022/06/08 02:00:07;;;;;;;2.47;1.40;;;15.80;99.90;;;;;;5060047;28;20036;-83
2022/06/08 02:02:53;;;;;;;2.58;1.58;;;15.80;99.90;;;;;;5066155;28;20094;-82
2022/06/08 02:05:35;;;;;;;1.98;1.10;;;15.80;99.90;;;;;;5082382;28;20032;-82
2022/06/08 02:08:14;;;;;;;1.25;1.10;;;15.80;99.90;;;;;;5083600;28;20029;-82
2022/06/08 02:11:08;;;;;;;4.13;1.15;;;15.80;99.90;;;;;;5086437;28;20032;-82
2022/06/08 02:13:36;;;;;;;1.27;0.88;;;15.80;99.90;;;;;;5086625;28;20541;-82
2022/06/08 02:16:42;;;;;;;1.75;1.27;;;15.70;99.90;;;;;;5085026;28;20028;-82
2022/06/08 02:19:14;;;;;;;1.55;1.40;;;15.70;99.90;;;;;;5086776;28;20539;-82
2022/06/08 02:21:45;;;;;;;0.88;0.82;;;15.60;99.90;;;;;;5080425;28;20094;-82
2022/06/08 02:24:33;;;;;;;1.33;1.23;;;15.50;99.90;;;;;;5083008;28;20115;-83
2022/06/08 02:27:08;;;;;;;1.20;1.02;;;15.50;99.90;;;;;;5076302;28;20028;-82
2022/06/08 02:29:42;;;;;;;2.20;1.20;;;15.50;99.90;;;;;;5089027;28;20051;-82
2022/06/08 02:35:06;;;;;;;1.20;1.10;;;15.40;99.90;;;;;;5080372;28;20089;-82
2022/06/08 02:37:35;;;;;;;2.83;1.10;;;15.40;99.90;;;;;;5078058;28;20024;-82
2022/06/08 02:40:13;;;;;;;2.45;1.48;;;15.40;99.90;;;;;;5081611;28;20028;-82
2022/06/08 02:42:51;;;;;;;2.05;1.63;;;15.50;99.90;;;;;;5086260;28;20035;-82
2022/06/08 02:45:26;;;;;;;2.83;1.40;;;15.60;99.90;;;;;;5087695;28;20032;-82
2022/06/08 02:47:57;;;;;;;2.15;1.30;;;15.60;99.90;;;;;;5089702;28;20021;-82
2022/06/08 02:50:26;;;;;;;2.03;1.40;;;15.70;99.90;;;;;;5090559;28;20027;-82
2022/06/08 02:53:04;;;;;;;2.92;1.05;;;15.80;99.90;;;;;;5085634;28;20510;-82
2022/06/08 02:55:56;;;;;;;2.30;1.38;;;15.90;99.90;;;;;;5082681;28;20047;-82
2022/06/08 02:58:39;;;;;;;6.00;1.88;;;15.90;99.90;;;;;;5079045;28;20028;-82
2022/06/08 03:01:12;;;;;;;6.32;1.30;;;15.90;99.90;;;;;;5082560;28;20028;-82
2022/06/08 03:03:45;;;;;;;1.25;1.05;;;15.80;99.90;;;;;;5088581;28;20032;-82
2022/06/08 03:06:15;;;;;;;1.13;1.02;;;15.70;99.90;;;;;;5087198;28;20063;-82
2022/06/08 03:08:50;;;;;;;1.40;1.30;;;15.70;99.90;;;;;;5087964;28;20023;-82
2022/06/08 03:11:17;;;;;;;1.83;1.27;;;15.70;99.90;;;;;;5081457;28;20032;-82
2022/06/08 03:13:52;;;;;;;0.93;0.93;;;15.60;99.90;;;;;;5081850;28;20410;-82
2022/06/08 03:16:56;;;;;;;1.45;1.20;;;15.60;99.90;;;;;;5087382;28;20115;-82
2022/06/08 03:19:23;;;;;;;4.25;1.45;;;15.60;99.90;;;;;;5071520;28;20134;-82
2022/06/08 03:21:48;;;;;;;1.48;1.15;;;15.50;99.90;;;;;;5083476;28;20990;-82
2022/06/08 03:24:14;;;;;;;2.30;1.30;;;15.50;99.90;;;;;;5088142;28;20028;-81
2022/06/08 03:26:44;;;;;;;1.67;1.30;;;15.50;99.90;;;;;;5084382;28;20115;-82
2022/06/08 03:29:10;;;;;;;2.73;1.40;;;15.60;99.90;;;;;;5085870;28;20027;-82
2022/06/08 03:31:36;;;;;;;1.17;1.02;;;15.60;99.90;;;;;;5081555;28;20024;-82
2022/06/08 03:34:01;;;;;;;1.88;1.23;;;15.70;99.90;;;;;;5085596;28;20024;-82
2022/06/08 03:36:27;;;;;;;1.50;1.40;;;15.80;99.90;;;;;;5085480;28;20024;-81
2022/06/08 03:38:52;;;;;;;5.05;2.50;;;16.00;99.90;;;;;;5082896;28;20118;-81
2022/06/08 03:41:18;;;;;;;1.67;1.00;;;16.00;99.90;;;;;;5087625;28;20032;-81
2022/06/08 03:43:43;;;;;;;1.92;1.50;;;16.20;99.90;;;;;;5085516;28;20394;-81
2022/06/08 03:46:10;;;;;;;2.13;1.17;;;16.30;99.90;;;;;;5083810;28;20086;-81
2022/06/08 03:48:37;;;;;;;1.08;1.02;;;16.40;99.90;;;;;;5082225;28;20097;-81
2022/06/08 03:51:05;;;;;;;1.83;1.10;;;16.50;99.90;;;;;;5082572;28;20151;-81
2022/06/08 03:53:58;;;;;;;3.30;1.40;;;16.50;99.90;;;;;;5079316;28;20553;-82
2022/06/08 03:56:27;;;;;;;4.18;1.40;;;16.60;99.90;;;;;;5064677;28;20024;-81
2022/06/08 03:58:53;;;;;;;0.95;0.90;;;16.70;99.90;;;;;;5087017;28;20028;-82
2022/06/08 04:01:19;;;;;;;1.63;1.05;;;16.80;99.90;;;;;;5083582;28;20040;-81
2022/06/08 04:03:45;;;;;;;1.42;1.10;;;16.90;99.90;;;;;;5082480;28;20390;-81
2022/06/08 04:06:10;;;;;;;1.23;1.00;;;17.00;99.90;;;;;;5086191;28;20064;-81
2022/06/08 04:08:38;;;;;;;2.35;1.63;;;17.10;99.90;;;;;;5086326;28;20020;-80
2022/06/08 04:11:03;;;;;;;1.90;1.35;;;17.20;99.90;;;;;;5084761;28;20106;-80
2022/06/08 04:13:29;;;;;;;1.40;1.30;;;17.30;99.90;;;;;;5082719;28;20513;-81
2022/06/08 04:15:54;;;;;;;2.03;1.27;;;17.30;99.90;;;;;;5083156;28;20020;-80
2022/06/08 04:18:22;;;;;;;1.42;1.33;;;17.30;99.90;;;;;;5083896;28;20024;-81
2022/06/08 04:20:51;;;;;;;1.55;1.30;;;17.40;99.90;;;;;;5084050;28;20024;-80
2022/06/08 04:23:19;;;;;;;1.50;1.15;;;17.50;99.90;;;;;;5083533;28;20039;-81
2022/06/08 04:25:44;;;;;;;1.77;1.23;;;17.50;99.90;;;;;;5082987;28;20028;-80
2022/06/08 04:28:13;;;;;;;2.35;1.25;;;17.50;99.90;;;;;;5075786;28;20027;-80
2022/06/08 04:30:39;;;;;;;2.30;1.10;;;17.50;99.90;;;;;;5087094;28;20015;-80
2022/06/08 04:33:05;;;;;;;2.38;1.60;;;17.60;99.90;;;;;;5082301;28;21866;-81
2022/06/08 04:35:32;;;;;;;1.45;1.10;;;17.50;99.90;;;;;;5082319;28;20028;-81
2022/06/08 04:37:58;;;;;;;5.05;1.40;;;17.50;99.90;;;;;;5067959;28;20020;-81
2022/06/08 04:40:24;;;;;;;1.88;1.55;;;17.60;99.90;;;;;;5077556;28;20110;-81
2022/06/08 04:42:50;;;;;;;1.42;1.33;;;17.70;99.90;;;;;;5088642;28;20052;-81
2022/06/08 04:45:15;;;;;;;1.48;1.05;;;17.80;99.90;;;;;;5078663;28;20055;-81
2022/06/08 04:47:41;;;;;;;2.13;1.23;;;17.90;99.90;;;;;;5081276;28;20435;-81
2022/06/08 04:50:08;;;;;;;1.17;1.08;;;18.10;99.90;;;;;;5085820;28;20110;-80
2022/06/08 04:52:34;;;;;;;1.60;1.00;;;18.20;99.90;;;;;;5085404;28;20032;-80
2022/06/08 04:55:00;;;;;;;1.25;1.15;;;18.30;99.90;;;;;;5084044;28;20063;-80
2022/06/08 04:57:26;;;;;;;1.58;1.20;;;18.30;99.10;;;;;;5084731;28;20028;-83
2022/06/08 04:59:52;;;;;;;2.40;1.70;;;18.40;95.60;;;;;;5088803;28;20020;-80
2022/06/08 05:05:04;;;;;;;1.38;0.95;;;18.50;95.90;;;;;;5080846;28;20062;-77
2022/06/08 05:07:29;;;;;;;1.98;1.17;;;18.60;95.20;;;;;;5089797;28;20020;-77
2022/06/08 05:09:55;;;;;;;1.83;1.40;;;18.70;94.40;;;;;;5085067;28;20074;-77
2022/06/08 05:12:20;;;;;;;1.30;1.13;;;18.80;95.50;;;;;;5086212;28;20081;-81
2022/06/08 05:14:45;;;;;;;1.42;1.20;;;18.70;96.00;;;;;;5089212;28;20028;-81
2022/06/08 05:17:11;;;;;;;1.95;1.67;;;18.60;99.60;;;;;;5084610;28;20024;-82
2022/06/08 05:19:36;;;;;;;2.22;1.30;;;18.50;99.30;;;;;;5088087;28;20474;-81
2022/06/08 05:22:02;;;;;;;1.35;1.20;;;18.40;98.40;;;;;;5080613;28;20052;-79
2022/06/08 05:24:27;;;;;;;2.60;1.27;;;18.30;95.10;;;;;;5071495;28;20471;-79
2022/06/08 05:26:53;;;;;;;1.33;1.23;;;18.30;97.40;;;;;;5072893;28;20062;-78
2022/06/08 05:29:18;;;;;;;1.98;1.30;;;18.30;99.90;;;;;;5075869;28;20025;-81
2022/06/08 05:31:44;;;;;;;1.45;1.00;;;18.20;99.90;;;;;;5078892;28;20047;-83
2022/06/08 05:34:09;;;;;;;1.30;1.17;;;18.20;99.90;;;;;;5086248;28;20032;-81
2022/06/08 05:36:35;;;;;;;1.42;1.13;;;18.10;99.90;;;;;;5088811;28;20054;-90
2022/06/08 05:39:00;;;;;;;1.70;1.05;;;18.20;99.50;;;;;;5087133;28;20038;-80
2022/06/08 05:41:26;;;;;;;1.65;1.30;;;18.20;99.90;;;;;;5087132;28;20472;-83
2022/06/08 05:43:51;;;;;;;1.25;0.98;;;18.20;98.90;;;;;;5081940;28;20024;-79
2022/06/08 05:46:17;;;;;;;1.52;1.20;;;18.30;95.10;;;;;;5084677;28;20035;-79
2022/06/08 05:48:43;;;;;;;2.38;1.42;;;18.30;94.40;;;;;;5087275;28;20118;-79
2022/06/08 05:51:09;;;;;;;3.40;0.93;;;18.30;94.30;;;;;;5084842;28;20047;-79
2022/06/08 05:53:35;;;;;;;1.17;0.90;;;18.50;93.80;;;;;;5087309;28;20035;-79
2022/06/08 05:56:01;;;;;;;1.80;1.15;;;18.60;93.80;;;;;;5080477;28;20360;-78
2022/06/08 05:58:26;;;;;;;1.38;0.90;;;18.70;92.50;;;;;;5089360;28;20107;-79
2022/06/08 06:00:52;;;;;;;1.95;1.20;;;18.90;93.30;;;;;;5081748;28;20107;-79
2022/06/08 06:03:18;;;;;;;2.22;0.82;;;19.20;92.30;;;;;;5080402;28;20048;-79
2022/06/08 06:05:44;;;;;;;1.13;0.93;;;19.30;93.70;;;;;;5078060;28;20441;-78
2022/06/08 06:08:10;;;;;;;0.98;0.80;;;19.20;91.80;;;;;;5079675;28;20479;-76
2022/06/08 06:10:38;;;;;;;0.90;0.90;;;19.20;90.70;;;;;;5086522;28;20033;-77
2022/06/08 06:13:04;;;;;;;1.02;0.82;;;19.10;91.40;;;;;;5083390;28;20075;-78
2022/06/08 06:15:30;;;;;;;0.77;0.77;;;19.00;91.40;;;;;;5085935;28;20123;-78
2022/06/08 06:17:57;;;;;;;1.10;1.00;;;18.90;92.20;;;;;;5074477;28;20111;-78
2022/06/08 06:20:22;;;;;;;1.10;1.02;;;18.90;93.80;;;;;;5086734;28;20033;-78
2022/06/08 06:22:48;;;;;;;1.20;1.10;;;18.90;94.80;;;;;;5080491;28;20029;-77
2022/06/08 06:25:13;;;;;;;1.20;0.93;;;18.80;93.60;;;;;;5089883;28;20059;-77
2022/06/08 06:27:39;;;;;;;1.20;1.02;;;18.80;95.80;;;;;;5079634;28;20021;-77
2022/06/08 06:30:06;;;;;;;1.13;1.02;;;18.90;93.80;;;;;;5080411;28;20025;-78
2022/06/08 06:32:34;;;;;;;1.20;0.93;;;19.00;94.40;;;;;;5078963;28;20035;-77
2022/06/08 06:35:01;;;;;;;2.03;1.00;;;19.30;92.80;;;;;;5071233;28;20020;-77
2022/06/08 06:37:29;;;;;;;5.43;1.70;;;19.50;93.60;;;;;;5074453;28;20027;-77
2022/06/08 06:39:55;;;;;;;2.30;1.20;;;19.60;91.20;;;;;;5071499;28;20025;-78
2022/06/08 06:42:24;;;;;;;1.05;1.00;;;19.70;91.00;;;;;;5074092;28;20082;-80
2022/06/08 06:44:51;;;;;;;1.35;0.98;;;19.70;90.40;;;;;;5087428;28;20061;-81
2022/06/08 06:47:17;;;;;;;1.20;1.10;;;19.70;90.80;;;;;;5087707;28;20039;-77
2022/06/08 06:49:42;;;;;;;1.23;1.05;;;19.90;91.30;;;;;;5080110;28;20032;-77
2022/06/08 06:52:10;;;;;;;3.13;1.35;;;19.90;91.10;;;;;;5088959;28;20116;-76
2022/06/08 06:54:36;;;;;;;1.83;1.10;;;19.90;91.10;;;;;;5083192;28;20168;-77
2022/06/08 06:57:02;;;;;;;1.25;1.15;;;20.00;91.10;;;;;;5091230;28;20024;-77
2022/06/08 06:59:28;;;;;;;4.45;1.80;;;20.20;90.40;;;;;;5084847;28;20119;-78
2022/06/08 07:01:54;;;;;;;1.50;1.08;;;20.40;89.30;;;;;;5078963;28;20113;-75
2022/06/08 07:04:19;;;;;;;1.17;1.08;;;20.60;86.90;;;;;;5074513;28;20063;-76
2022/06/08 07:06:45;;;;;;;1.63;1.00;;;20.80;87.60;;;;;;5094510;28;20027;-77
2022/06/08 07:09:11;;;;;;;1.70;1.08;;;21.20;84.50;;;;;;5090725;28;20502;-75
2022/06/08 07:11:39;;;;;;;1.20;1.10;;;21.00;84.00;;;;;;5089959;28;20429;-76
2022/06/08 07:14:07;;;;;;;1.73;0.80;;;21.10;83.90;;;;;;5079058;28;20035;-76
2022/06/08 07:16:34;;;;;;;0.93;0.70;;;21.00;83.00;;;;;;5084613;28;20028;-75
2022/06/08 07:18:59;;;;;;;0.90;0.80;;;21.00;83.30;;;;;;5081573;28;20032;-77
2022/06/08 07:21:25;;;;;;;2.63;1.52;;;21.00;83.60;;;;;;5084859;28;20067;-76
2022/06/08 07:23:51;;;;;;;1.30;1.08;;;21.00;83.40;;;;;;5091456;28;20486;-76
2022/06/08 07:26:17;;;;;;;1.00;0.95;;;21.10;84.30;;;;;;5090348;28;20204;-76
2022/06/08 07:28:43;;;;;;;0.95;0.95;;;21.30;82.60;;;;;;5092185;28;20020;-77
2022/06/08 07:31:11;;;;;;;0.82;0.77;;;21.40;82.80;;;;;;5088324;28;20395;-77
2022/06/08 07:33:37;;;;;;;1.17;1.00;;;21.50;84.20;;;;;;5091449;28;20053;-77
2022/06/08 07:36:03;;;;;;;1.73;1.63;;;21.60;81.50;;;;;;5089813;28;20102;-77
2022/06/08 07:38:29;;;;;;;1.10;1.00;;;21.60;81.40;;;;;;5070649;28;20028;-76
2022/06/08 07:40:54;;;;;;;1.90;0.90;;;21.60;80.90;;;;;;5077462;28;20747;-78
2022/06/08 07:43:21;;;;;;;1.63;1.42;;;21.60;80.30;;;;;;5090019;28;20032;-76
2022/06/08 07:45:47;;;;;;;1.15;0.90;;;21.40;81.50;;;;;;5084528;28;20032;-77
2022/06/08 07:50:57;;;;;;;1.02;0.90;;;21.50;82.10;;;;;;5071644;28;20497;-77
2022/06/08 07:53:22;;;;;;;2.05;0.80;;;21.50;81.90;;;;;;5075088;28;20053;-77
2022/06/08 07:55:48;;;;;;;1.23;1.08;;;21.30;83.60;;;;;;5077487;28;20025;-76
2022/06/08 07:58:13;;;;;;;1.15;1.00;;;21.20;82.10;;;;;;5076304;28;20031;-77
2022/06/08 08:00:43;;;;;;;2.47;1.17;;;21.20;82.50;;;;;;5087780;28;20032;-77
2022/06/08 08:03:09;;;;;;;1.20;0.98;;;21.40;81.70;;;;;;5086821;28;20093;-77
2022/06/08 08:05:35;;;;;;;0.82;0.82;;;21.50;80.80;;;;;;5079903;28;20028;-78
2022/06/08 08:08:00;;;;;;;1.63;1.20;;;21.70;81.20;;;;;;5088119;28;20103;-81
2022/06/08 08:10:26;;;;;;;0.80;0.80;;;21.70;78.90;;;;;;5077331;28;20024;-80
2022/06/08 08:12:55;;;;;;;1.98;1.20;;;21.70;79.80;;;;;;5083204;28;20028;-79
2022/06/08 08:15:21;;;;;;;0.90;0.90;;;21.60;80.70;;;;;;5075204;28;20033;-81
2022/06/08 08:17:47;;;;;;;0.70;0.70;;;21.70;81.40;;;;;;5089789;28;20038;-83
2022/06/08 08:20:15;;;;;;;0.88;0.88;;;21.90;80.80;;;;;;5080254;28;20107;-84
2022/06/08 08:22:40;;;;;;;0.73;0.73;;;21.90;81.00;;;;;;5072509;28;20497;-84
2022/06/08 08:25:06;;;;;;;1.20;0.88;;;21.70;81.00;;;;;;5090328;28;20020;-85
2022/06/08 08:27:32;;;;;;;1.05;0.95;;;21.50;81.70;;;;;;5090728;28;20020;-79
2022/06/08 08:29:57;;;;;;;0.60;0.60;;;21.40;82.80;;;;;;5071769;28;20027;-78
2022/06/08 08:32:23;;;;;;;0.93;0.90;;;21.20;81.80;;;;;;5085078;28;20394;-79
2022/06/08 08:34:48;;;;;;;0.90;0.90;;;21.20;83.10;;;;;;5084909;28;20027;-79
2022/06/08 08:37:14;;;;;;;1.05;0.95;;;21.30;83.60;;;;;;5084219;28;20404;-78
2022/06/08 08:39:40;;;;;;;1.10;1.00;;;21.20;84.30;;;;;;5081892;28;20029;-78
2022/06/08 08:42:21;;;;;;;0.70;0.70;;;21.40;83.20;;;;;;5084513;28;20043;-80
2022/06/08 08:44:54;;;;;;;1.10;0.90;;;21.50;83.10;;;;;;5080888;28;20029;-78
2022/06/08 08:47:24;;;;;;;0.65;0.65;;;21.60;83.10;;;;;;5080723;28;20062;-78
2022/06/08 08:49:55;;;;;;;1.40;1.05;;;21.80;83.10;;;;;;5069162;28;20055;-78
2022/06/08 08:52:41;;;;;;;0.70;0.70;;;22.00;83.00;;;;;;5079329;28;20036;-78
2022/06/08 08:55:17;;;;;;;0.93;0.93;;;22.10;81.30;;;;;;5089612;28;20040;-78
2022/06/08 08:57:49;;;;;;;1.30;0.77;;;22.40;79.20;;;;;;5083398;28;20031;-77
2022/06/08 09:00:28;;;;;;;0.65;0.65;;;22.30;78.40;;;;;;5079554;28;20024;-78
2022/06/08 09:05:42;;;;;;;1.58;1.20;;;22.70;76.40;;;;;;5093277;28;20382;-78
2022/06/08 09:08:11;;;;;;;0.70;0.70;;;22.90;76.60;;;;;;5088169;28;20024;-78
2022/06/08 09:10:38;;;;;;;0.70;0.70;;;22.90;75.50;;;;;;5088548;28;20031;-77
2022/06/08 09:13:05;;;;;;;0.80;0.60;;;22.90;74.70;;;;;;5092649;28;20082;-78
2022/06/08 09:15:42;;;;;;;0.75;0.75;;;23.00;75.90;;;;;;5092502;28;20032;-79
2022/06/08 09:18:28;;;;;;;0.80;0.63;;;22.90;73.80;;;;;;5093266;28;20066;-78
2022/06/08 09:20:54;;;;;;;1.23;1.08;;;23.00;73.90;;;;;;5093586;28;20110;-79
2022/06/08 09:23:41;;;;;;;1.33;0.93;;;23.20;72.80;;;;;;5091336;28;20028;-77
2022/06/08 09:26:27;;;;;;;0.70;0.65;;;23.30;72.10;;;;;;5091011;28;20032;-79
2022/06/08 09:29:02;;;;;;;0.80;0.80;;;23.60;72.90;;;;;;5088847;28;20020;-79
2022/06/08 09:31:35;;;;;;;1.27;1.17;;;24.00;69.70;;;;;;5088612;28;20056;-78
2022/06/08 09:34:10;;;;;;;0.77;0.75;;;24.10;68.30;;;;;;5093335;28;20062;-78
2022/06/08 09:36:36;;;;;;;0.93;0.90;;;24.00;69.20;;;;;;5093291;28;20078;-78
2022/06/08 09:39:02;;;;;;;0.80;0.80;;;23.80;69.60;;;;;;5087549;28;20028;-78
2022/06/08 09:41:37;;;;;;;0.93;0.93;;;23.60;69.50;;;;;;5092941;28;20028;-79
2022/06/08 09:44:02;;;;;;;1.52;1.33;;;23.90;68.70;;;;;;5093209;28;20024;-79
2022/06/08 09:53:12;;;;;;;0.70;0.70;;;23.90;68.00;;;;;;5016264;28;20038;-79
2022/06/08 09:55:43;;;;;;;1.08;1.00;;;24.00;68.20;;;;;;5072513;28;20590;-79
2022/06/08 09:58:30;;;;;;;1.55;1.00;;;24.40;67.00;;;;;;5092068;28;20130;-79
2022/06/08 10:01:05;;;;;;;1.23;1.13;;;24.60;66.90;;;;;;5091691;28;20422;-79
2022/06/08 10:03:39;;;;;;;0.98;0.90;;;24.50;66.10;;;;;;5092655;28;20024;-80
2022/06/08 10:06:35;;;;;;;0.70;0.70;;;24.30;65.90;;;;;;5092179;28;20028;-79
2022/06/08 10:09:16;;;;;;;1.60;1.05;;;24.30;65.20;;;;;;5072365;28;20065;-79
2022/06/08 10:11:50;;;;;;;1.10;0.88;;;24.10;66.20;;;;;;5092544;28;20031;-79
2022/06/08 10:14:42;;;;;;;0.80;0.80;;;24.30;66.30;;;;;;5091916;28;20700;-79
2022/06/08 10:17:23;;;;;;;;;;;24.20;66.70;;;;;;5083923;28;20090;-79
2022/06/08 10:20:11;;;;;;;0.73;0.73;;;24.50;63.80;;;;;;5071665;28;19958;-78
2022/06/08 10:22:46;;;;;;;0.60;0.60;;;24.10;64.80;;;;;;5071450;28;20514;-79
2022/06/08 10:25:21;;;;;;;1.38;0.70;;;24.00;66.90;;;;;;5080553;28;20055;-78
2022/06/08 10:27:56;;;;;;;0.88;0.88;;;24.10;64.80;;;;;;5092470;28;20077;-78
2022/06/08 10:30:45;;;;;;;1.13;1.00;;;24.50;65.20;;;;;;5091831;28;20085;-79
2022/06/08 10:33:19;;;;;;;2.25;1.30;;;25.20;62.30;;;;;;5078221;28;20029;-78
2022/06/08 10:35:54;;;;;;;0.80;0.80;;;25.20;61.10;;;;;;5085865;28;20059;-79
2022/06/08 10:38:30;;;;;;;0.82;0.70;;;25.10;62.20;;;;;;5071311;28;20546;-78
2022/06/08 10:44:28;;;;;;;0.95;0.80;;;24.90;62.70;;;;;;5051930;28;20044;-79
2022/06/08 10:46:54;;;;;;;1.80;0.75;;;24.70;62.70;;;;;;5091189;28;20023;-79
2022/06/08 10:49:49;;;;;;;0.80;0.80;;;24.80;63.00;;;;;;5091184;28;20037;-78
2022/06/08 10:52:17;;;;;;;1.58;1.00;;;25.00;65.20;;;;;;5077560;28;20043;-78
2022/06/08 10:54:54;;;;;;;0.90;0.90;;;25.10;63.10;;;;;;5076700;28;20036;-79
2022/06/08 10:57:36;;;;;;;1.13;0.90;;;24.80;62.40;;;;;;5088397;28;20111;-78
2022/06/08 11:00:19;;;;;;;0.73;0.73;;;24.30;64.60;;;;;;5071685;28;20025;-80
2022/06/08 11:03:02;;;;;;;0.80;0.80;;;24.50;66.70;;;;;;5071321;28;20501;-79
2022/06/08 11:05:42;;;;;;;0.80;0.80;;;24.50;64.40;;;;;;5056056;28;20025;-79
2022/06/08 11:08:07;;;;;;;0.70;0.70;;;24.60;62.90;;;;;;5087164;28;20054;-78
2022/06/08 11:10:42;;;;;;;0.70;0.70;;;24.70;61.20;;;;;;5090594;28;20055;-78
2022/06/08 11:13:19;;;;;;;0.93;0.90;;;24.70;61.90;;;;;;5081402;28;20024;-78
2022/06/08 11:15:50;;;;;;;0.70;0.70;;;24.80;61.10;;;;;;5079087;28;20487;-79
2022/06/08 11:18:24;;;;;;;0.75;0.63;;;25.00;63.90;;;;;;5085104;28;20032;-79
2022/06/08 11:21:14;;;;;;;1.00;0.65;;;25.10;64.70;;;;;;5080990;28;20048;-79
2022/06/08 11:23:48;;;;;;;0.95;0.73;;;24.80;63.30;;;;;;5070842;28;20256;-79
2022/06/08 11:26:25;;;;;;;0.82;0.82;;;24.50;64.60;;;;;;5071085;28;20027;-78
2022/06/08 11:28:59;;;;;;;0.90;0.70;;;24.40;62.50;;;;;;5089228;28;20031;-79
2022/06/08 11:31:28;;;;;;;0.70;0.70;;;24.50;62.60;;;;;;5082229;28;20101;-78
2022/06/08 11:33:59;;;;;;;0.90;0.85;;;24.70;63.40;;;;;;5081635;28;20024;-79
2022/06/08 11:36:47;;;;;;;1.10;0.93;;;24.80;65.00;;;;;;5070742;28;20379;-79
2022/06/08 11:39:47;;;;;;;0.52;0.52;;;25.00;60.90;;;;;;5070335;28;20032;-79
2022/06/08 11:42:29;;;;;;;0.65;0.65;;;26.10;60.00;;;;;;5089338;28;20032;-79
2022/06/08 11:45:18;;;;;;;0.70;0.70;;;26.70;56.20;;;;;;5072592;28;20043;-79
2022/06/08 11:48:04;;;;;;;1.20;0.82;;;26.50;56.70;;;;;;5090702;28;20016;-79
2022/06/08 11:50:39;;;;;;;0.63;0.63;;;26.50;56.90;;;;;;5079028;28;20029;-79
2022/06/08 11:53:17;;;;;;;0.70;0.70;;;27.00;57.90;;;;;;5081506;28;20054;-79
2022/06/08 11:56:13;;;;;;;0.70;0.70;;;27.60;58.30;;;;;;5089621;28;20056;-77
2022/06/08 11:58:44;;;;;;;0.68;0.65;;;27.60;54.70;;;;;;5090342;28;20074;-79
2022/06/08 12:01:14;;;;;;;;;;;26.90;54.10;;;;;;5090360;28;20039;-76
2022/06/08 12:03:44;;;;;;;0.60;0.60;;;26.80;54.60;;;;;;5088291;28;19912;-79
2022/06/08 12:06:36;;;;;;;0.70;0.70;;;27.20;55.60;;;;;;5086121;28;20490;-79
2022/06/08 12:09:06;;;;;;;1.17;0.70;;;26.90;55.50;;;;;;5084447;28;20025;-79
2022/06/08 12:11:33;;;;;;;0.77;0.77;;;26.40;57.00;;;;;;5089662;28;20107;-78
2022/06/08 12:14:21;;;;;;;0.70;0.70;;;26.00;56.50;;;;;;5088320;28;20779;-78
2022/06/08 12:16:58;;;;;;;1.75;0.80;;;25.50;58.30;;;;;;5090465;28;20113;-78
2022/06/08 12:19:26;;;;;;;0.90;0.90;;;25.40;57.90;;;;;;5075270;28;20028;-79
2022/06/08 12:22:09;;;;;;;0.50;0.50;;;25.30;58.10;;;;;;5087857;28;20024;-79
2022/06/08 12:24:35;;;;;;;0.38;0.30;;;25.10;59.00;;;;;;5090161;28;20027;-79
2022/06/08 12:27:14;;;;;;;1.05;1.05;;;25.30;58.80;;;;;;5089295;28;20390;-79
2022/06/08 12:29:50;;;;;;;0.70;0.70;;;25.90;57.60;;;;;;5057037;28;20486;-79
2022/06/08 12:32:23;;;;;;;0.50;0.50;;;26.00;56.70;;;;;;5074044;28;20573;-79
2022/06/08 12:35:12;;;;;;;0.70;0.70;;;25.60;56.90;;;;;;5088998;28;20032;-79
2022/06/08 12:37:44;;;;;;;0.70;0.63;;;25.30;57.80;;;;;;5073583;28;20036;-78
2022/06/08 12:40:15;;;;;;;0.75;0.60;;;24.80;59.20;;;;;;5084096;28;20166;-79
2022/06/08 12:42:48;;;;;;;1.08;0.65;;;24.60;59.80;;;;;;5071688;28;20039;-79
2022/06/08 12:45:35;;;;;;;0.60;0.60;;;24.70;60.00;;;;;;5089334;28;20027;-79
2022/06/08 12:48:24;;;;;;;1.25;0.60;;;24.50;60.90;;;;;;5087390;28;20035;-79
2022/06/08 12:50:51;;;;;;;0.43;0.43;;;24.20;64.80;;;;;;5076734;28;20116;-79
2022/06/08 12:53:17;;;;;;;1.42;1.05;;;24.20;63.60;;;;;;5087104;28;20119;-78
2022/06/08 12:55:43;;;;;;;0.80;0.80;;;24.40;62.30;;;;;;5087714;28;20031;-79
2022/06/08 12:58:09;;;;;;;0.90;0.63;;;24.90;61.00;;;;;;5080970;28;20025;-78
2022/06/08 13:00:37;;;;;;;0.60;0.60;;;25.30;61.50;;;;;;5070632;28;20033;-77
2022/06/08 13:03:27;;;;;;;0.70;0.70;;;25.40;59.00;;;;;;5089565;28;20024;-79
2022/06/08 13:05:54;;;;;;;0.40;0.40;;;25.10;58.80;;;;;;5088860;28;20047;-79
2022/06/08 13:08:25;;;;;;;0.60;0.60;;;24.70;59.60;;;;;;5089127;28;20028;-79
2022/06/08 13:10:54;;;;;;;0.70;0.57;;;24.60;62.60;;;;;;5087894;28;20111;-79
2022/06/08 13:13:25;;;;;;;0.57;0.57;;;24.50;63.00;;;;;;5074924;28;20044;-78
2022/06/08 13:15:51;;;;;;;0.60;0.60;;;24.50;63.10;;;;;;5084143;28;20040;-79
2022/06/08 13:18:20;;;;;;;0.50;0.50;;;24.50;62.20;;;;;;5089371;28;20390;-79
2022/06/08 13:20:46;;;;;;;0.50;0.50;;;24.40;62.20;;;;;;5080582;28;20077;-78
2022/06/08 13:23:14;;;;;;;0.57;0.57;;;24.30;62.00;;;;;;5083241;28;20048;-79
2022/06/08 13:25:41;;;;;;;0.50;0.50;;;24.10;60.60;;;;;;5083913;28;20028;-78
2022/06/08 13:28:14;;;;;;;0.43;0.43;;;24.10;60.50;;;;;;5086634;28;20028;-79
2022/06/08 13:30:39;;;;;;;1.02;0.50;;;24.20;61.30;;;;;;5085914;28;20024;-77
2022/06/08 13:33:55;;;;;;;0.50;0.50;;;24.40;63.60;;;;;;5080530;28;20031;-77